createdAt,value
2022-08-12T00:01:11.620Z,20.21
2022-08-12T00:03:56.757Z,20.26
2022-08-12T00:06:43.026Z,20.33
2022-08-12T00:09:28.356Z,20.35
2022-08-12T00:12:14.013Z,20.30
2022-08-12T00:15:02.438Z,20.32
2022-08-12T00:17:49.153Z,20.28
2022-08-12T00:20:34.718Z,20.15
2022-08-12T00:23:20.483Z,20.26
2022-08-12T00:26:23.294Z,20.19
2022-08-12T00:29:12.586Z,20.29
2022-08-12T00:32:00.491Z,20.24
2022-08-12T00:34:49.084Z,20.18
2022-08-12T00:37:39.464Z,20.09
2022-08-12T00:40:28.911Z,20.17
2022-08-12T00:42:57.498Z,20.05
2022-08-12T00:45:24.842Z,20.16
2022-08-12T00:47:53.665Z,20.13
2022-08-12T00:50:23.374Z,20.07
2022-08-12T00:52:52.803Z,20.03
2022-08-12T00:55:21.340Z,19.99
2022-08-12T00:57:50.819Z,20.05
2022-08-12T01:00:24.880Z,20.00
2022-08-12T01:02:58.604Z,19.96
2022-08-12T01:05:45.093Z,20.01
2022-08-12T01:08:31.305Z,19.79
2022-08-12T01:11:17.169Z,19.93
2022-08-12T01:13:48.850Z,19.87
2022-08-12T01:16:22.437Z,19.84
2022-08-12T01:18:51.948Z,19.81
2022-08-12T01:21:27.712Z,19.76
2022-08-12T01:24:31.180Z,19.68
2022-08-12T01:27:00.246Z,19.70
2022-08-12T01:29:33.020Z,19.72
2022-08-12T01:32:08.012Z,19.73
2022-08-12T01:34:38.675Z,19.49
2022-08-12T01:37:09.256Z,19.64
2022-08-12T01:40:32.029Z,19.65
2022-08-12T01:42:55.518Z,19.62
2022-08-12T01:45:24.579Z,19.65
2022-08-12T01:48:12.908Z,19.57
2022-08-12T01:51:13.384Z,19.51
2022-08-12T01:54:14.041Z,19.51
2022-08-12T01:56:59.641Z,19.49
2022-08-12T01:59:56.474Z,19.49
2022-08-12T02:02:37.161Z,19.45
2022-08-12T02:05:45.837Z,19.47
2022-08-12T02:09:10.734Z,19.42
2022-08-12T02:12:09.454Z,19.39
2022-08-12T02:14:46.249Z,19.39
2022-08-12T02:17:54.645Z,19.31
2022-08-12T02:20:52.005Z,19.30
2022-08-12T02:23:26.543Z,19.23
2022-08-12T02:25:59.584Z,19.19
2022-08-12T02:28:27.164Z,19.14
2022-08-12T02:30:55.623Z,19.09
2022-08-12T02:33:23.262Z,19.08
2022-08-12T02:35:51.536Z,19.05
2022-08-12T02:38:21.660Z,18.97
2022-08-12T02:40:54.875Z,18.91
2022-08-12T02:43:50.806Z,18.88
2022-08-12T02:46:29.143Z,18.79
2022-08-12T02:49:04.008Z,18.82
2022-08-12T02:51:34.868Z,18.80
2022-08-12T02:54:06.177Z,18.73
2022-08-12T02:56:50.286Z,18.71
2022-08-12T02:59:22.647Z,18.69
2022-08-12T03:01:56.581Z,18.72
2022-08-12T03:04:30.675Z,18.66
2022-08-12T03:07:14.411Z,18.58
2022-08-12T03:10:16.093Z,18.50
2022-08-12T03:12:49.050Z,18.47
2022-08-12T03:15:22.804Z,18.46
2022-08-12T03:18:29.277Z,18.35
2022-08-12T03:20:59.326Z,18.38
2022-08-12T03:23:30.830Z,18.51
2022-08-12T03:26:03.151Z,18.56
2022-08-12T03:28:54.236Z,18.51
2022-08-12T03:31:30.794Z,18.54
2022-08-12T03:34:07.046Z,18.51
2022-08-12T03:36:37.206Z,18.50
2022-08-12T03:39:16.701Z,18.52
2022-08-12T03:41:58.443Z,18.50
2022-08-12T03:45:51.614Z,18.49
2022-08-12T03:48:39.285Z,18.49
2022-08-12T03:51:24.855Z,18.50
2022-08-12T03:54:11.707Z,18.41
2022-08-12T03:56:58.125Z,18.42
2022-08-12T03:59:43.954Z,18.42
2022-08-12T04:02:17.750Z,18.30
2022-08-12T04:04:46.377Z,18.27
2022-08-12T04:07:16.142Z,18.21
2022-08-12T04:09:46.006Z,18.17
2022-08-12T04:12:32.635Z,18.14
2022-08-12T04:15:01.210Z,18.07
2022-08-12T04:17:28.591Z,18.09
2022-08-12T04:19:58.026Z,18.13
2022-08-12T04:22:30.269Z,18.15
2022-08-12T04:25:02.759Z,18.19
2022-08-12T04:27:31.914Z,18.11
2022-08-12T04:30:30.843Z,18.11
2022-08-12T04:32:49.953Z,18.20
2022-08-12T04:35:17.875Z,18.25
2022-08-12T04:37:58.983Z,18.22
2022-08-12T04:40:31.135Z,18.32
2022-08-12T04:43:01.113Z,18.28
2022-08-12T04:45:29.379Z,18.32
2022-08-12T04:47:56.877Z,18.37
2022-08-12T04:50:33.766Z,18.52
2022-08-12T04:53:08.936Z,18.56
2022-08-12T04:55:38.597Z,18.65
2022-08-12T04:58:07.257Z,18.75
2022-08-12T05:00:35.181Z,18.80
2022-08-12T05:03:02.174Z,18.81
2022-08-12T05:05:35.231Z,18.92
2022-08-12T05:08:03.993Z,18.98
2022-08-12T05:10:33.370Z,19.00
2022-08-12T05:13:09.403Z,19.08
2022-08-12T05:16:03.971Z,19.14
2022-08-12T05:18:29.228Z,19.30
2022-08-12T05:20:58.763Z,19.41
2022-08-12T05:23:26.076Z,19.51
2022-08-12T05:25:57.052Z,19.66
2022-08-12T05:28:27.014Z,19.83
2022-08-12T05:30:55.024Z,19.97
2022-08-12T05:33:26.505Z,20.15
2022-08-12T05:35:53.525Z,20.28
2022-08-12T05:38:39.334Z,20.44
2022-08-12T05:41:18.911Z,20.57
2022-08-12T05:44:08.045Z,20.68
2022-08-12T05:46:36.994Z,20.80
2022-08-12T05:49:05.551Z,21.00
2022-08-12T05:51:40.544Z,21.13
2022-08-12T05:54:09.146Z,21.34
2022-08-12T05:56:36.920Z,21.52
2022-08-12T05:59:09.318Z,21.69
2022-08-12T06:02:11.956Z,21.85
2022-08-12T06:04:24.018Z,22.20
2022-08-12T06:06:53.247Z,22.30
2022-08-12T06:09:22.341Z,22.65
2022-08-12T06:12:05.434Z,22.94
2022-08-12T06:14:38.814Z,23.30
2022-08-12T06:17:08.709Z,23.69
2022-08-12T06:20:22.810Z,23.98
2022-08-12T06:22:25.926Z,23.93
2022-08-12T06:24:53.469Z,24.22
2022-08-12T06:27:21.480Z,24.41
2022-08-12T06:30:09.343Z,24.08
2022-08-12T06:32:35.450Z,24.39
2022-08-12T06:35:24.167Z,24.58
2022-08-12T06:37:57.042Z,24.87
2022-08-12T06:40:44.176Z,24.64
2022-08-12T06:43:11.026Z,25.22
2022-08-12T06:45:47.201Z,25.64
2022-08-12T06:48:14.930Z,25.78
2022-08-12T06:50:42.551Z,25.77
2022-08-12T06:53:11.263Z,25.87
2022-08-12T06:55:39.396Z,26.09
2022-08-12T06:58:25.077Z,26.43
2022-08-12T07:00:52.132Z,26.74
2022-08-12T07:03:25.664Z,26.07
2022-08-12T07:05:52.562Z,26.07
2022-08-12T07:08:19.468Z,26.32
2022-08-12T07:10:57.314Z,26.50
2022-08-12T07:13:25.077Z,26.37
2022-08-12T07:15:56.526Z,26.46
2022-08-12T07:18:30.054Z,26.48
2022-08-12T07:20:58.213Z,26.73
2022-08-12T07:23:25.035Z,26.09
2022-08-12T07:25:56.445Z,26.38
2022-08-12T07:28:28.040Z,26.35
2022-08-12T07:30:57.188Z,26.22
2022-08-12T07:33:28.677Z,26.76
2022-08-12T07:35:58.306Z,26.19
2022-08-12T07:38:33.338Z,26.05
2022-08-12T07:41:15.743Z,25.96
2022-08-12T07:43:49.555Z,26.61
2022-08-12T07:46:39.099Z,27.02
2022-08-12T07:49:16.083Z,26.84
2022-08-12T07:51:44.741Z,27.24
2022-08-12T07:54:13.675Z,26.82
2022-08-12T07:56:43.251Z,26.88
2022-08-12T07:59:10.356Z,26.40
2022-08-12T08:01:38.345Z,26.23
2022-08-12T08:04:25.269Z,26.24
2022-08-12T08:06:52.423Z,26.06
2022-08-12T08:09:22.365Z,26.84
2022-08-12T08:12:08.192Z,26.67
2022-08-12T08:14:35.202Z,26.83
2022-08-12T08:17:03.681Z,26.90
2022-08-12T08:19:33.513Z,26.97
2022-08-12T08:22:32.032Z,27.40
2022-08-12T08:25:20.190Z,26.96
2022-08-12T08:27:54.840Z,27.10
2022-08-12T08:30:21.758Z,27.33
2022-08-12T08:32:48.716Z,27.46
2022-08-12T08:35:15.878Z,27.08
2022-08-12T08:37:46.958Z,27.24
2022-08-12T08:40:34.087Z,27.33
2022-08-12T08:43:01.195Z,27.58
2022-08-12T08:45:28.737Z,27.87
2022-08-12T08:48:00.091Z,28.10
2022-08-12T08:50:27.503Z,28.36
2022-08-12T08:52:54.351Z,28.18
2022-08-12T08:55:30.028Z,27.87
2022-08-12T08:58:00.354Z,28.30
2022-08-12T09:00:27.552Z,28.50
2022-08-12T09:02:58.673Z,28.74
2022-08-12T09:05:27.919Z,29.08
2022-08-12T09:08:09.101Z,28.37
2022-08-12T09:10:45.346Z,28.83
2022-08-12T09:13:29.377Z,28.95
2022-08-12T09:16:16.309Z,28.61
2022-08-12T09:18:52.147Z,29.20
2022-08-12T09:21:54.095Z,29.19
2022-08-12T09:24:22.224Z,28.83
2022-08-12T09:26:49.687Z,28.68
2022-08-12T09:30:10.787Z,28.12
2022-08-12T09:32:11.580Z,28.63
2022-08-12T09:34:56.817Z,28.35
2022-08-12T09:37:26.483Z,28.58
2022-08-12T09:40:05.288Z,28.29
2022-08-12T09:43:16.798Z,28.60
2022-08-12T09:46:12.070Z,28.93
2022-08-12T09:48:36.589Z,29.06
2022-08-12T09:51:17.086Z,28.82
2022-08-12T09:54:05.494Z,28.66
2022-08-12T09:56:58.401Z,29.10
2022-08-12T10:00:17.330Z,29.14
2022-08-12T10:02:45.959Z,28.93
2022-08-12T10:04:59.483Z,28.91
2022-08-12T10:07:28.676Z,29.13
2022-08-12T10:10:23.056Z,29.32
2022-08-12T10:13:40.050Z,29.66
2022-08-12T10:16:06.352Z,30.12
2022-08-12T10:18:37.265Z,29.72
2022-08-12T10:21:37.533Z,30.42
2022-08-12T10:24:08.285Z,30.62
2022-08-12T10:26:56.621Z,31.34
2022-08-12T10:30:03.670Z,31.18
2022-08-12T10:32:44.341Z,30.48
2022-08-12T10:35:15.344Z,29.33
2022-08-12T10:38:33.380Z,30.08
2022-08-12T10:40:33.420Z,30.28
2022-08-12T10:43:20.097Z,30.46
2022-08-12T10:45:51.731Z,31.43
2022-08-12T10:48:27.110Z,30.63
2022-08-12T10:51:51.830Z,31.31
2022-08-12T10:54:00.972Z,31.74
2022-08-12T10:56:34.836Z,32.38
2022-08-12T10:59:05.105Z,32.34
2022-08-12T11:04:18.410Z,32.64
2022-08-12T11:04:34.192Z,32.15
2022-08-12T11:08:35.126Z,32.75
2022-08-12T11:10:00.787Z,31.63
2022-08-12T11:12:56.674Z,31.00
2022-08-12T11:15:32.938Z,30.88
2022-08-12T11:18:07.652Z,31.13
2022-08-12T11:20:39.585Z,31.44
2022-08-12T11:23:25.206Z,30.50
2022-08-12T11:25:57.517Z,30.55
2022-08-12T11:28:34.152Z,30.37
2022-08-12T11:31:04.078Z,30.80
2022-08-12T11:34:04.362Z,30.42
2022-08-12T11:36:18.282Z,31.17
2022-08-12T11:38:50.792Z,31.53
2022-08-12T11:41:31.721Z,31.58
2022-08-12T11:44:35.278Z,31.62
2022-08-12T11:46:53.231Z,32.15
2022-08-12T11:49:30.826Z,32.55
2022-08-12T11:52:02.006Z,33.07
2022-08-12T11:54:30.175Z,32.61
2022-08-12T11:57:02.521Z,32.90
2022-08-12T12:02:21.312Z,33.52
2022-08-12T12:04:52.571Z,33.77
2022-08-12T12:07:22.568Z,33.20
2022-08-12T12:09:52.899Z,33.61
2022-08-12T12:12:22.898Z,33.77
2022-08-12T12:14:54.673Z,33.65
2022-08-12T12:17:38.003Z,33.25
2022-08-12T12:20:09.358Z,32.84
2022-08-12T12:22:41.773Z,31.81
2022-08-12T12:25:12.864Z,32.53
2022-08-12T12:28:04.018Z,31.19
2022-08-12T12:30:37.238Z,30.98
2022-08-12T12:33:06.196Z,31.64
2022-08-12T12:36:17.148Z,31.17
2022-08-12T12:38:21.057Z,31.83
2022-08-12T12:40:52.963Z,32.12
2022-08-12T12:43:28.687Z,32.38
2022-08-12T12:46:08.773Z,31.66
2022-08-12T12:48:35.747Z,32.18
2022-08-12T12:51:48.465Z,31.75
2022-08-12T12:54:07.523Z,31.69
2022-08-12T12:56:40.364Z,31.50
2022-08-12T12:59:07.476Z,32.43
2022-08-12T13:01:55.093Z,31.96
2022-08-12T13:04:22.531Z,32.04
2022-08-12T13:06:52.068Z,32.51
2022-08-12T13:09:22.801Z,32.55
2022-08-12T13:11:53.478Z,32.20
2022-08-12T13:14:28.275Z,32.68
2022-08-12T13:16:57.462Z,32.98
2022-08-12T13:19:37.478Z,32.77
2022-08-12T13:22:18.456Z,32.32
2022-08-12T13:24:54.507Z,32.03
2022-08-12T13:27:36.415Z,32.53
2022-08-12T13:30:11.282Z,32.62
2022-08-12T13:32:40.577Z,33.49
2022-08-12T13:35:20.284Z,33.41
2022-08-12T13:37:57.257Z,33.75
2022-08-12T13:40:28.395Z,33.69
2022-08-12T13:43:01.702Z,33.88
2022-08-12T13:45:31.106Z,34.05
2022-08-12T13:48:03.777Z,32.74
2022-08-12T13:50:36.240Z,31.66
2022-08-12T13:53:24.061Z,31.56
2022-08-12T13:55:59.446Z,31.57
2022-08-12T13:58:30.199Z,32.41
2022-08-12T14:00:58.549Z,32.11
2022-08-12T14:03:28.636Z,33.04
2022-08-12T14:06:15.387Z,32.38
2022-08-12T14:08:43.268Z,32.49
2022-08-12T14:11:12.617Z,33.10
2022-08-12T14:14:03.754Z,31.77
2022-08-12T14:16:37.384Z,32.69
2022-08-12T14:19:22.577Z,33.62
2022-08-12T14:22:00.815Z,34.93
2022-08-12T14:24:36.951Z,36.20
2022-08-12T14:27:10.420Z,37.67
2022-08-12T14:30:04.483Z,36.07
2022-08-12T14:32:34.639Z,36.30
2022-08-12T14:35:05.106Z,35.24
2022-08-12T14:37:55.574Z,35.58
2022-08-12T14:40:27.763Z,36.21
2022-08-12T14:42:57.100Z,37.39
2022-08-12T14:45:37.191Z,37.47
2022-08-12T14:48:13.388Z,37.49
2022-08-12T14:51:09.568Z,37.05
2022-08-12T14:59:57.380Z,38.07
2022-08-12T15:02:26.445Z,37.00
2022-08-12T15:04:58.989Z,35.32
2022-08-12T15:07:33.786Z,34.78
2022-08-12T15:10:31.237Z,32.77
2022-08-12T15:12:59.065Z,31.88
2022-08-12T15:15:25.892Z,31.35
2022-08-12T15:18:02.464Z,31.45
2022-08-12T15:20:37.593Z,30.96
2022-08-12T15:23:17.524Z,30.78
2022-08-12T15:26:02.911Z,31.41
2022-08-12T15:28:34.121Z,33.75
2022-08-12T15:31:02.681Z,33.89
2022-08-12T15:33:46.016Z,32.79
2022-08-12T15:36:14.614Z,31.84
2022-08-12T15:38:46.434Z,30.99
2022-08-12T15:41:15.330Z,30.73
2022-08-12T15:44:17.128Z,30.52
2022-08-12T15:46:32.532Z,30.44
2022-08-12T15:48:59.529Z,30.18
2022-08-12T15:51:59.921Z,30.06
2022-08-12T15:54:33.781Z,30.17
2022-08-12T15:57:07.556Z,30.06
2022-08-12T15:59:51.986Z,29.94
2022-08-12T16:02:29.796Z,29.74
2022-08-12T16:04:57.601Z,28.65
2022-08-12T16:07:26.000Z,28.31
2022-08-12T16:10:05.367Z,27.68
2022-08-12T16:12:55.009Z,27.98
2022-08-12T16:15:26.351Z,27.79
2022-08-12T16:18:20.030Z,27.87
2022-08-12T16:20:42.548Z,27.74
2022-08-12T16:23:26.703Z,27.22
2022-08-12T16:26:14.904Z,26.89
2022-08-12T16:28:44.342Z,27.43
2022-08-12T16:31:22.605Z,27.17
2022-08-12T16:33:59.849Z,27.23
2022-08-12T16:36:29.440Z,27.53
2022-08-12T16:38:56.917Z,27.69
2022-08-12T16:41:23.880Z,27.78
2022-08-12T16:43:53.293Z,27.76
2022-08-12T16:46:31.787Z,27.53
2022-08-12T16:49:08.658Z,27.60
2022-08-12T16:51:41.792Z,27.60
2022-08-12T16:54:16.115Z,27.67
2022-08-12T16:56:55.337Z,27.43
2022-08-12T16:59:52.728Z,27.22
2022-08-12T17:02:30.081Z,27.12
2022-08-12T17:05:04.626Z,27.10
2022-08-12T17:07:38.138Z,26.99
2022-08-12T17:10:13.838Z,27.05
2022-08-12T17:12:45.419Z,26.61
2022-08-12T17:15:50.904Z,26.63
2022-08-12T17:18:39.333Z,26.53
2022-08-12T17:20:49.559Z,26.74
2022-08-12T17:23:19.261Z,26.78
2022-08-12T17:25:52.910Z,26.40
2022-08-12T17:28:21.403Z,26.52
2022-08-12T17:30:57.312Z,26.49
2022-08-12T17:33:27.776Z,26.32
2022-08-12T17:36:02.845Z,26.22
2022-08-12T17:38:29.694Z,26.30
2022-08-12T17:40:57.653Z,26.17
2022-08-12T17:43:57.797Z,26.29
2022-08-12T17:46:23.633Z,26.34
2022-08-12T17:48:54.902Z,26.26
2022-08-12T17:51:24.283Z,26.29
2022-08-12T17:54:11.256Z,26.12
2022-08-12T17:56:41.147Z,26.20
2022-08-12T17:59:12.475Z,26.12
2022-08-12T18:01:44.453Z,25.95
2022-08-12T18:04:23.166Z,26.00
2022-08-12T18:07:02.259Z,26.02
2022-08-12T18:09:32.066Z,25.88
2022-08-12T18:12:24.494Z,25.76
2022-08-12T18:15:01.887Z,25.68
2022-08-12T18:17:31.306Z,25.68
2022-08-12T18:20:05.480Z,25.64
2022-08-12T18:22:36.276Z,25.55
2022-08-12T18:26:12.730Z,25.38
2022-08-12T18:28:15.404Z,25.28
2022-08-12T18:30:52.206Z,25.19
2022-08-12T18:33:24.599Z,25.13
2022-08-12T18:35:55.706Z,24.94
2022-08-12T18:38:25.829Z,24.86
2022-08-12T18:41:21.590Z,24.73
2022-08-12T18:44:01.253Z,24.61
2022-08-12T18:46:55.338Z,24.46
2022-08-12T18:49:34.894Z,24.33
2022-08-12T18:52:07.762Z,24.18
2022-08-12T18:54:53.313Z,24.17
2022-08-12T18:58:06.222Z,23.96
2022-08-12T19:00:21.181Z,23.86
2022-08-12T19:02:51.072Z,23.80
2022-08-12T19:05:17.930Z,23.84
2022-08-12T19:08:00.148Z,23.57
2022-08-12T19:10:30.230Z,23.64
2022-08-12T19:13:23.530Z,23.58
2022-08-12T19:15:54.538Z,23.44
2022-08-12T19:18:25.760Z,23.42
2022-08-12T19:20:56.714Z,23.37
2022-08-12T19:23:25.421Z,23.42
2022-08-12T19:26:05.069Z,23.38
2022-08-12T19:28:34.437Z,23.30
2022-08-12T19:31:44.586Z,23.26
2022-08-12T19:36:14.470Z,23.03
2022-08-12T19:38:03.546Z,22.96
2022-08-12T19:40:32.951Z,22.85
2022-08-12T19:43:20.214Z,22.91
2022-08-12T19:45:56.783Z,22.87
2022-08-12T19:48:30.412Z,22.84
2022-08-12T19:50:58.086Z,22.78
2022-08-12T19:53:27.454Z,22.79
2022-08-12T19:55:57.312Z,22.69
2022-08-12T19:58:24.949Z,22.65
2022-08-12T20:00:53.762Z,22.78
2022-08-12T20:03:40.435Z,22.75
2022-08-12T20:06:16.020Z,22.79
2022-08-12T20:08:56.503Z,22.58
2022-08-12T20:12:12.720Z,22.61
2022-08-12T20:14:19.843Z,22.62
2022-08-12T20:16:57.828Z,22.55
2022-08-12T20:20:01.620Z,22.45
2022-08-12T20:22:23.979Z,22.42
2022-08-12T20:24:55.219Z,22.40
2022-08-12T20:27:29.691Z,22.32
2022-08-12T20:30:13.551Z,22.34
2022-08-12T20:32:55.469Z,22.23
2022-08-12T20:35:25.139Z,22.29
2022-08-12T20:38:26.556Z,22.20
2022-08-12T20:40:55.838Z,22.16
2022-08-12T20:43:28.444Z,22.10
2022-08-12T20:45:59.200Z,22.10
2022-08-12T20:48:29.379Z,22.13
2022-08-12T20:51:04.214Z,22.06
2022-08-12T20:53:54.291Z,22.10
2022-08-12T20:56:36.686Z,21.97
2022-08-12T20:59:10.431Z,21.98
2022-08-12T21:01:47.784Z,21.82
2022-08-12T21:04:36.598Z,21.95
2022-08-12T21:07:09.457Z,21.96
2022-08-12T21:09:44.136Z,21.87
2022-08-12T21:12:27.614Z,21.75
2022-08-12T21:15:16.596Z,21.76
2022-08-12T21:18:08.885Z,21.68
2022-08-12T21:20:35.514Z,21.67
2022-08-12T21:23:05.735Z,21.63
2022-08-12T21:25:44.481Z,21.51
2022-08-12T21:28:14.036Z,21.55
2022-08-12T21:31:11.222Z,21.51
2022-08-12T21:33:32.134Z,21.51
2022-08-12T21:36:22.662Z,21.45
2022-08-12T21:39:35.817Z,21.33
2022-08-12T21:42:06.942Z,21.27
2022-08-12T21:45:46.608Z,21.27
2022-08-12T21:47:24.244Z,21.16
2022-08-12T21:50:06.626Z,21.08
2022-08-12T21:52:41.013Z,21.08
2022-08-12T21:55:18.784Z,21.00
2022-08-12T21:57:54.933Z,20.96
2022-08-12T22:00:34.281Z,20.88
2022-08-12T22:04:03.694Z,20.86
2022-08-12T22:06:31.236Z,20.90
2022-08-12T22:09:17.237Z,20.81
2022-08-12T22:11:58.650Z,20.74
2022-08-12T22:14:28.761Z,20.80
2022-08-12T22:16:57.958Z,20.81
2022-08-12T22:19:26.769Z,20.79
2022-08-12T22:21:55.879Z,20.74
2022-08-12T22:24:26.419Z,20.73
2022-08-12T22:26:55.491Z,20.66
2022-08-12T22:29:40.799Z,20.53
2022-08-12T22:32:11.515Z,20.51
2022-08-12T22:34:39.478Z,20.42
2022-08-12T22:37:19.858Z,20.36
2022-08-12T22:39:49.183Z,20.29
2022-08-12T22:42:41.023Z,20.23
2022-08-12T22:45:27.555Z,20.15
2022-08-12T22:47:56.036Z,20.08
2022-08-12T22:50:28.531Z,19.95
2022-08-12T22:53:15.160Z,19.87
2022-08-12T22:56:00.501Z,19.80
2022-08-12T22:58:33.537Z,19.66
2022-08-12T23:01:01.898Z,19.65
2022-08-12T23:03:48.281Z,19.60
2022-08-12T23:06:23.674Z,19.58
2022-08-12T23:08:52.352Z,19.57
2022-08-12T23:11:23.508Z,19.50
2022-08-12T23:13:54.947Z,19.40
2022-08-12T23:16:31.616Z,19.56
2022-08-12T23:19:23.221Z,19.57
2022-08-12T23:22:06.761Z,19.50
2022-08-12T23:24:55.541Z,19.61
2022-08-12T23:27:52.051Z,19.58
2022-08-12T23:30:32.307Z,19.56
2022-08-12T23:33:13.121Z,19.50
2022-08-12T23:35:54.062Z,19.44
2022-08-12T23:38:32.236Z,19.24
2022-08-12T23:41:02.266Z,19.21
2022-08-12T23:43:39.897Z,19.09
2022-08-12T23:46:19.208Z,19.00
2022-08-12T23:48:48.084Z,18.99
2022-08-12T23:51:22.353Z,18.96
2022-08-12T23:54:00.136Z,18.92
2022-08-12T23:56:32.846Z,18.83
2022-08-12T23:59:07.688Z,18.90
